Time;durP1;ratioP1;P1;durP2;ratioP2;P2;SDS_P1;SDS_P2;PMS_P1;PMS_P2;Temp;Humidity;BMP_temperature;BMP_pressure;BME280_temperature;BME280_humidity;BME280_pressure;Samples;Min_cycle;Max_cycle;Signal;HPM_P1;HPM_P2
2023/08/11 00:01:19;;;;;;;;;6.33;5.67;;;;;-146.67;42.36;74412.06;6311760;22;61597;-75
2023/08/11 00:03:45;;;;;;;;;6.67;6.67;;;;;-146.67;42.82;74422.03;6312326;22;61585;-75
2023/08/11 00:06:10;;;;;;;;;4.33;4.33;;;;;-146.67;42.56;74422.03;6310227;22;61901;-75
2023/08/11 00:08:39;;;;;;;;;6.67;6.67;;;;;-146.67;42.55;74420.06;6309637;22;65056;-75
2023/08/11 00:11:06;;;;;;;;;5.33;5.00;;;;;-146.67;42.55;74424.03;6309590;22;61746;-75
2023/08/11 00:13:32;;;;;;;;;6.00;5.00;;;;;-146.67;42.90;74424.03;6311104;22;61686;-76
2023/08/11 00:15:58;;;;;;;;;6.00;5.67;;;;;-146.67;42.71;74424.03;6312464;22;61885;-75
2023/08/11 00:18:23;;;;;;;;;8.67;6.33;;;;;-146.67;42.96;74428.03;6311086;22;61977;-75
2023/08/11 00:20:48;;;;;;;;;8.67;6.33;;;;;-146.67;42.80;74436.03;6309258;22;61751;-75
2023/08/11 00:23:15;;;;;;;;;5.67;5.67;;;;;-146.67;42.88;74438.03;6336515;22;61779;-75
2023/08/11 00:25:40;;;;;;;;;8.67;6.67;;;;;-146.67;42.84;74432.03;6312162;22;61706;-75
2023/08/11 00:28:06;;;;;;;;;4.67;4.67;;;;;-146.67;43.28;74448.00;6310001;22;62805;-75
2023/08/11 00:30:31;;;;;;;;;3.33;3.00;;;;;-146.67;43.04;74446.00;6336101;22;61734;-75
2023/08/11 00:32:57;;;;;;;;;7.33;7.33;;;;;-146.67;43.36;74452.00;6311924;22;61739;-75
2023/08/11 00:35:23;;;;;;;;;5.00;5.00;;;;;-146.67;43.54;74454.00;6312017;22;61796;-75
2023/08/11 00:37:49;;;;;;;;;7.00;7.00;;;;;-146.67;43.41;74456.00;6310998;22;61711;-75
2023/08/11 00:40:14;;;;;;;;;8.00;7.00;;;;;-146.67;43.58;74457.97;6311515;22;61707;-75
2023/08/11 00:42:40;;;;;;;;;5.67;5.67;;;;;-146.67;43.75;74456.00;6310499;22;61940;-75
2023/08/11 00:45:06;;;;;;;;;8.00;6.00;;;;;-146.67;43.83;74456.00;6311808;22;61845;-75
2023/08/11 00:47:32;;;;;;;;;12.33;8.00;;;;;-146.67;43.67;74459.97;6308488;22;63659;-75
2023/08/11 00:49:58;;;;;;;;;11.00;8.67;;;;;-146.67;43.74;74459.97;6310695;22;61711;-75
2023/08/11 00:52:24;;;;;;;;;6.67;6.67;;;;;-146.67;43.78;74465.97;6311902;22;61707;-76
2023/08/11 00:54:53;;;;;;;;;8.67;7.00;;;;;-146.67;43.92;74469.97;6309618;22;62082;-76
2023/08/11 00:57:19;;;;;;;;;11.00;8.67;;;;;-146.67;43.77;74469.97;6310478;22;61906;-75
2023/08/11 00:59:46;;;;;;;;;8.00;8.00;;;;;-146.67;44.02;74477.94;6335458;22;61952;-75
2023/08/11 01:02:12;;;;;;;;;10.33;8.33;;;;;-146.67;44.00;74483.94;6335444;22;61712;-75
2023/08/11 01:04:39;;;;;;;;;10.00;9.00;;;;;-146.67;44.11;74491.94;6335802;22;62001;-75
2023/08/11 01:07:23;;;;;;;;;9.00;9.00;;;;;-146.67;43.93;74489.94;6310634;22;61692;-75
2023/08/11 01:10:06;;;;;;;;;9.33;7.33;;;;;-146.67;43.83;74491.94;6308893;22;61771;-75
2023/08/11 01:13:07;;;;;;;;;11.33;10.00;;;;;-146.67;44.11;74491.94;6310681;22;61710;-75
2023/08/11 01:15:40;;;;;;;;;7.33;7.00;;;;;-146.67;44.17;74499.91;6311304;22;61650;-75
2023/08/11 01:18:06;;;;;;;;;9.33;7.00;;;;;-146.67;44.57;74501.91;6310827;22;61625;-75
2023/08/11 01:20:33;;;;;;;;;9.33;9.00;;;;;-146.67;44.49;74511.88;6310431;22;61644;-75
2023/08/11 01:23:01;;;;;;;;;5.00;4.33;;;;;-146.67;44.43;74517.88;6311247;22;61699;-75
2023/08/11 01:25:27;;;;;;;;;12.00;10.00;;;;;-146.67;44.52;74521.88;6310824;22;62028;-75
2023/08/11 01:27:55;;;;;;;;;8.67;7.00;;;;;-146.67;44.71;74527.84;6310085;22;61879;-75
2023/08/11 01:30:20;;;;;;;;;10.33;8.67;;;;;-146.67;44.39;74529.84;6310723;22;61857;-75
2023/08/11 01:32:46;;;;;;;;;9.33;8.00;;;;;-146.67;44.73;74531.84;6308751;22;61642;-75
2023/08/11 01:35:11;;;;;;;;;9.25;8.25;;;;;-146.67;44.91;74537.84;6311433;22;61816;-75
2023/08/11 01:37:37;;;;;;;;;9.67;9.67;;;;;-146.67;44.75;74533.84;6308217;22;63495;-75
2023/08/11 01:40:10;;;;;;;;;12.75;8.25;;;;;-146.67;44.84;74537.84;6308392;22;61847;-75
2023/08/11 01:42:35;;;;;;;;;12.50;9.25;;;;;-146.67;44.74;74545.81;6310721;22;61736;-75
2023/08/11 01:45:01;;;;;;;;;11.75;9.75;;;;;-146.67;44.96;74551.81;6335789;22;61866;-75
2023/08/11 01:47:26;;;;;;;;;13.75;11.75;;;;;-146.67;45.09;74557.81;6310567;22;62941;-75
2023/08/11 01:49:52;;;;;;;;;11.67;9.67;;;;;-146.67;44.62;74555.81;6308585;22;61636;-75
2023/08/11 01:52:19;;;;;;;;;10.25;9.00;;;;;-146.67;44.99;74571.78;6311309;22;61572;-75
2023/08/11 01:54:44;;;;;;;;;10.00;8.00;;;;;-146.67;45.05;74579.78;6310478;22;61719;-75
2023/08/11 01:57:10;;;;;;;;;9.67;6.00;;;;;-146.67;45.17;74581.75;6310081;22;61779;-76
2023/08/11 01:59:36;;;;;;;;;9.00;9.00;;;;;-146.67;44.98;74575.78;6335011;22;61722;-75
2023/08/11 02:02:02;;;;;;;;;5.00;4.00;;;;;-146.67;45.42;74589.75;6310980;22;62159;-75
2023/08/11 02:04:28;;;;;;;;;11.67;10.00;;;;;-146.67;45.22;74583.75;6310928;22;61704;-75
2023/08/11 02:06:53;;;;;;;;;10.67;7.33;;;;;-146.67;45.59;74583.75;6310517;22;62681;-75
2023/08/11 02:09:19;;;;;;;;;10.00;9.33;;;;;-146.67;45.40;74589.75;6308595;22;61800;-75
2023/08/11 02:11:44;;;;;;;;;11.25;9.00;;;;;-146.67;45.31;74591.75;6310980;22;61659;-75
2023/08/11 02:14:09;;;;;;;;;9.00;9.00;;;;;-146.67;45.34;74591.75;6311072;22;61696;-75
2023/08/11 02:16:35;;;;;;;;;14.25;9.75;;;;;-146.67;45.62;74591.75;6335690;22;63504;-75
2023/08/11 02:19:00;;;;;;;;;12.00;10.33;;;;;-146.67;45.61;74597.75;6309868;22;61704;-75
2023/08/11 02:21:27;;;;;;;;;12.75;10.25;;;;;-146.67;45.54;74599.72;6310298;22;61846;-75
2023/08/11 02:23:53;;;;;;;;;11.33;9.67;;;;;-146.67;45.57;74605.72;6312153;22;61615;-75
2023/08/11 02:26:18;;;;;;;;;15.25;11.00;;;;;-146.67;45.61;74609.72;6335917;22;63780;-75
2023/08/11 02:28:44;;;;;;;;;11.00;9.50;;;;;-146.67;45.43;74599.72;6309773;22;61922;-75
2023/08/11 02:31:10;;;;;;;;;9.25;9.25;;;;;-146.67;45.56;74605.72;6312765;22;61853;-75
2023/08/11 02:33:36;;;;;;;;;10.25;8.25;;;;;-146.67;45.70;74603.72;6310600;22;61818;-75
2023/08/11 02:36:02;;;;;;;;;14.25;11.00;;;;;-146.67;45.62;74603.72;6311638;22;62856;-75
2023/08/11 02:38:27;;;;;;;;;10.25;8.75;;;;;-146.67;45.87;74603.72;6312069;22;61674;-75
2023/08/11 02:40:53;;;;;;;;;9.25;8.00;;;;;-146.67;45.81;74605.72;6311944;22;61715;-75
2023/08/11 02:43:18;;;;;;;;;9.00;9.00;;;;;-146.67;45.75;74605.72;6336592;22;61990;-75
2023/08/11 02:45:44;;;;;;;;;12.75;11.25;;;;;-146.67;45.89;74613.72;6311299;22;61774;-75
2023/08/11 02:48:09;;;;;;;;;11.50;9.50;;;;;-146.67;46.03;74619.69;6312405;22;61619;-75
2023/08/11 02:50:34;;;;;;;;;8.75;8.75;;;;;-146.67;46.03;74623.69;6311800;22;61639;-75
2023/08/11 02:53:00;;;;;;;;;8.00;8.00;;;;;-146.67;45.90;74623.69;6311953;22;61610;-75
2023/08/11 02:55:25;;;;;;;;;9.50;7.75;;;;;-146.67;46.08;74627.69;6335822;22;64687;-75
2023/08/11 02:57:51;;;;;;;;;10.75;9.75;;;;;-146.67;46.12;74629.69;6336003;22;61837;-75
2023/08/11 03:00:17;;;;;;;;;9.50;9.00;;;;;-146.67;46.01;74627.69;6312463;22;62192;-75
2023/08/11 03:02:46;;;;;;;;;12.75;9.50;;;;;-146.67;46.01;74627.69;6312663;22;61653;-75
2023/08/11 03:05:14;;;;;;;;;10.75;9.25;;;;;-146.67;46.12;74627.69;6309206;22;63791;-75
2023/08/11 03:07:40;;;;;;;;;10.50;10.00;;;;;-146.67;46.21;74639.66;6311635;22;61743;-75
2023/08/11 03:10:07;;;;;;;;;9.00;8.33;;;;;-146.67;46.12;74653.63;6335993;22;61961;-75
2023/08/11 03:12:32;;;;;;;;;2.33;1.67;;;;;-146.67;46.37;74665.63;6312181;22;61585;-75
2023/08/11 03:14:58;;;;;;;;;8.50;8.50;;;;;-146.67;46.23;74659.63;6311409;22;61711;-75
2023/08/11 03:17:23;;;;;;;;;10.33;8.33;;;;;-146.67;46.23;74659.63;6312373;22;61720;-75
2023/08/11 03:19:49;;;;;;;;;9.75;9.75;;;;;-146.67;46.23;74657.63;6311503;22;61609;-75
2023/08/11 03:22:18;;;;;;;;;9.50;9.50;;;;;-146.67;46.40;74659.63;6312328;22;61869;-75
2023/08/11 03:24:46;;;;;;;;;8.75;8.75;;;;;-146.67;46.47;74659.63;6310930;22;61742;-75
2023/08/11 03:27:15;;;;;;;;;10.75;10.00;;;;;-146.67;46.49;74669.63;6309602;22;61691;-75
2023/08/11 03:29:41;;;;;;;;;9.25;8.25;;;;;-146.67;46.46;74673.59;6311323;22;61817;-75
2023/08/11 03:32:06;;;;;;;;;8.33;8.00;;;;;-146.67;46.61;74671.59;6310508;22;61889;-75
2023/08/11 03:34:32;;;;;;;;;8.75;8.75;;;;;-146.67;46.81;74671.59;6311311;22;61765;-75
2023/08/11 03:36:57;;;;;;;;;10.00;8.33;;;;;-146.67;46.65;74675.59;6310095;22;61771;-75
2023/08/11 03:39:23;;;;;;;;;9.00;7.67;;;;;-146.67;46.81;74669.63;6312747;22;61777;-75
2023/08/11 03:41:49;;;;;;;;;14.00;8.00;;;;;-146.67;46.82;74671.59;6312228;22;61769;-75
2023/08/11 03:44:15;;;;;;;;;8.00;8.00;;;;;-146.67;47.04;74679.59;6310786;22;61647;-75
2023/08/11 03:46:40;;;;;;;;;11.00;8.00;;;;;-146.67;46.86;74685.59;6312129;22;61651;-75
2023/08/11 03:49:06;;;;;;;;;9.67;8.33;;;;;-146.67;47.04;74685.59;6311702;22;61873;-75
2023/08/11 03:51:32;;;;;;;;;10.00;8.33;;;;;-146.67;46.92;74677.59;6311636;22;61638;-75
2023/08/11 03:53:59;;;;;;;;;5.67;5.67;;;;;-146.67;47.03;74685.59;6310964;22;63352;-75
2023/08/11 03:56:25;;;;;;;;;9.25;8.75;;;;;-146.67;47.10;74687.56;6311927;22;61834;-75
2023/08/11 03:58:50;;;;;;;;;12.50;9.00;;;;;-146.67;47.11;74685.59;6335388;22;61950;-75
2023/08/11 04:01:16;;;;;;;;;10.50;8.75;;;;;-146.67;47.21;74683.59;6335948;22;62101;-75
2023/08/11 04:03:42;;;;;;;;;7.50;7.25;;;;;-146.67;47.07;74693.56;6310443;22;63107;-75
2023/08/11 04:06:07;;;;;;;;;8.33;7.67;;;;;-146.67;47.36;74697.56;6335344;22;61784;-75
2023/08/11 04:08:32;;;;;;;;;8.25;7.75;;;;;-146.67;47.48;74695.56;6309827;22;61712;-75
2023/08/11 04:10:58;;;;;;;;;12.50;8.25;;;;;-146.67;47.45;74691.56;6311876;22;61961;-75
2023/08/11 04:13:24;;;;;;;;;9.00;9.00;;;;;-146.67;47.43;74693.56;6334856;22;63369;-75
2023/08/11 04:15:49;;;;;;;;;9.50;8.50;;;;;-146.67;47.40;74699.56;6311408;22;61785;-76
2023/08/11 04:18:14;;;;;;;;;10.00;9.00;;;;;-146.67;47.18;74701.56;6335361;22;61821;-75
2023/08/11 04:20:40;;;;;;;;;9.00;8.67;;;;;-146.67;47.18;74699.56;6308902;22;61650;-75
2023/08/11 04:23:06;;;;;;;;;8.00;7.00;;;;;-146.67;47.35;74701.56;6310740;22;62813;-75
2023/08/11 04:25:31;;;;;;;;;13.25;9.00;;;;;-146.67;47.24;74701.56;6311378;22;61622;-75
2023/08/11 04:27:57;;;;;;;;;10.00;7.33;;;;;-146.67;47.27;74699.56;6308921;22;61651;-75
2023/08/11 04:30:23;;;;;;;;;9.25;8.00;;;;;-146.67;47.38;74711.53;6311579;22;62456;-75
2023/08/11 04:32:48;;;;;;;;;12.00;8.50;;;;;-146.67;47.57;74707.53;6310884;22;61651;-75
2023/08/11 04:35:14;;;;;;;;;10.25;9.00;;;;;-146.67;47.77;74709.53;6310161;22;62020;-75
2023/08/11 04:37:41;;;;;;;;;8.00;7.75;;;;;-146.67;47.72;74709.53;6311441;22;61939;-75
2023/08/11 04:40:10;;;;;;;;;10.50;8.25;;;;;-146.67;47.44;74711.53;6311936;22;62028;-75
2023/08/11 04:42:38;;;;;;;;;6.50;6.00;;;;;-146.67;47.56;74697.56;6310733;22;62040;-75
2023/08/11 04:45:04;;;;;;;;;7.50;6.25;;;;;-146.67;47.67;74699.56;6311310;22;61641;-75
2023/08/11 04:47:30;;;;;;;;;8.00;7.25;;;;;-146.67;47.46;74697.56;6310842;22;61863;-75
2023/08/11 04:49:55;;;;;;;;;9.50;8.25;;;;;-146.67;48.31;74753.47;6335537;22;61691;-75
2023/08/11 04:52:21;;;;;;;;;7.75;7.75;;;;;-146.67;48.66;74771.44;6308555;22;63589;-75
2023/08/11 04:54:47;;;;;;;;;8.25;8.00;;;;;-146.67;48.94;74781.41;6311277;22;61762;-75
2023/08/11 04:57:12;;;;;;;;;10.00;10.00;;;;;-146.67;48.91;74785.41;6311219;22;61713;-75
2023/08/11 04:59:37;;;;;;;;;9.25;8.50;;;;;-146.67;48.95;74785.41;6311277;22;61750;-76
2023/08/11 05:02:03;;;;;;;;;8.25;7.50;;;;;-146.67;48.65;74789.41;6310376;22;62706;-75
2023/08/11 05:04:28;;;;;;;;;10.75;9.25;;;;;-146.67;48.50;74775.44;6310931;22;61751;-75
2023/08/11 05:06:54;;;;;;;;;11.00;7.67;;;;;-146.67;48.63;74771.44;6311673;22;61827;-75
2023/08/11 05:09:19;;;;;;;;;10.50;7.25;;;;;-146.67;48.84;74777.44;6311524;22;61759;-75
2023/08/11 05:11:44;;;;;;;;;8.33;7.33;;;;;-146.67;48.89;74777.44;6310549;22;61717;-75
2023/08/11 05:14:10;;;;;;;;;12.25;10.00;;;;;-146.67;49.19;74779.41;6310895;22;61650;-75
2023/08/11 05:16:35;;;;;;;;;8.75;8.00;;;;;-146.67;49.07;74781.41;6310805;22;61700;-75
2023/08/11 05:19:01;;;;;;;;;10.25;9.75;;;;;-146.67;49.25;74777.44;6311857;22;61730;-75
2023/08/11 05:21:26;;;;;;;;;11.50;10.00;;;;;-146.67;49.10;74779.41;6309197;22;61769;-75
2023/08/11 05:23:51;;;;;;;;;9.75;9.00;;;;;-146.67;49.12;74773.44;6311632;22;61607;-75
2023/08/11 05:26:17;;;;;;;;;9.75;8.50;;;;;-146.67;49.13;74771.44;6311115;22;61585;-75
2023/08/11 05:28:43;;;;;;;;;11.00;8.75;;;;;-146.67;49.30;74767.44;6311469;22;61858;-75
2023/08/11 05:31:09;;;;;;;;;10.00;8.25;;;;;-146.67;49.10;74769.44;6307828;22;64671;-75
2023/08/11 05:33:34;;;;;;;;;11.50;9.25;;;;;-146.67;49.12;74757.47;6310958;22;61703;-75
2023/08/11 05:36:00;;;;;;;;;9.00;9.00;;;;;-146.67;48.99;74753.47;6309436;22;61964;-75
2023/08/11 05:38:25;;;;;;;;;7.25;7.25;;;;;-146.67;48.85;74747.47;6309127;22;61887;-75
2023/08/11 05:40:51;;;;;;;;;8.75;8.75;;;;;-146.67;48.71;74745.47;6310377;22;61924;-75
2023/08/11 05:43:17;;;;;;;;;8.75;8.00;;;;;-146.67;48.81;74747.47;6310490;22;62040;-75
2023/08/11 05:45:43;;;;;;;;;11.00;9.00;;;;;-146.67;48.61;74739.50;6311077;22;61746;-75
2023/08/11 05:48:08;;;;;;;;;9.33;8.33;;;;;-146.67;48.71;74737.50;6311709;22;61694;-75
2023/08/11 05:50:34;;;;;;;;;9.00;7.75;;;;;-146.67;48.24;74725.50;6311472;22;62577;-75
2023/08/11 05:52:59;;;;;;;;;13.00;10.00;;;;;-146.67;48.48;74717.53;6310603;22;61954;-75
2023/08/11 05:55:25;;;;;;;;;9.25;8.75;;;;;-146.67;48.21;74705.53;6313156;22;61778;-75
2023/08/11 05:57:50;;;;;;;;;9.50;8.50;;;;;-146.67;48.13;74693.56;6310940;22;61625;-75
2023/08/11 06:00:18;;;;;;;;;10.50;6.50;;;;;-146.67;47.86;74673.59;6311970;22;61953;-75
2023/08/11 06:02:44;;;;;;;;;8.33;6.33;;;;;-146.67;47.41;74635.66;6310553;22;61675;-75
2023/08/11 06:05:12;;;;;;;;;5.67;5.33;;;;;-146.67;47.38;74627.69;6312375;22;61695;-75
2023/08/11 06:07:38;;;;;;;;;3.67;3.67;;;;;-146.67;47.39;74625.69;6312722;22;62008;-75
2023/08/11 06:10:04;;;;;;;;;7.00;5.00;;;;;-146.67;46.96;74593.75;6312171;22;61679;-75
2023/08/11 06:12:30;;;;;;;;;5.67;4.67;;;;;-146.67;46.44;74549.81;6310150;22;61740;-75
2023/08/11 06:14:55;;;;;;;;;6.75;5.25;;;;;-146.67;46.32;74537.84;6336430;22;61723;-75
2023/08/11 06:17:21;;;;;;;;;5.67;5.67;;;;;-146.67;46.50;74529.84;6312975;22;61680;-75
2023/08/11 06:19:47;;;;;;;;;4.67;3.67;;;;;-146.67;46.21;74507.91;6310917;22;61842;-75
2023/08/11 06:22:12;;;;;;;;;5.33;5.33;;;;;-146.67;46.04;74493.91;6312166;22;61837;-75
2023/08/11 06:24:38;;;;;;;;;4.67;4.67;;;;;-146.67;46.23;74485.94;6312345;22;61662;-75
2023/08/11 06:27:04;;;;;;;;;3.67;3.67;;;;;-146.67;46.10;74469.97;6310728;22;61734;-75
2023/08/11 06:29:29;;;;;;;;;8.00;5.67;;;;;-146.67;46.16;74481.94;6310836;22;61709;-75
2023/08/11 06:31:54;;;;;;;;;7.33;5.67;;;;;-146.67;46.29;74487.94;6312620;22;61615;-75
2023/08/11 06:34:21;;;;;;;;;9.67;6.67;;;;;-146.67;45.78;74444.00;6312552;22;61749;-75
2023/08/11 06:36:47;;;;;;;;;4.67;4.67;;;;;-146.67;45.66;74450.00;6312491;22;61797;-75
2023/08/11 06:39:13;;;;;;;;;11.33;5.00;;;;;-146.67;44.75;74368.16;6311424;22;62112;-75
2023/08/11 06:41:38;;;;;;;;;6.00;6.00;;;;;-146.67;44.08;74278.31;6312202;22;61663;-75
2023/08/11 06:44:05;;;;;;;;;5.67;4.67;;;;;-146.67;43.55;74270.31;6311484;22;62025;-75
2023/08/11 06:46:31;;;;;;;;;7.67;6.67;;;;;-146.67;43.53;74280.31;6310970;22;61846;-75
2023/08/11 06:48:57;;;;;;;;;10.00;5.33;;;;;-146.67;43.86;74298.28;6309579;22;62587;-75
2023/08/11 06:51:22;;;;;;;;;5.00;4.00;;;;;-146.67;44.24;74308.25;6311899;22;61797;-75
2023/08/11 06:53:47;;;;;;;;;4.00;4.00;;;;;-146.67;43.95;74334.22;6312102;22;61641;-76
2023/08/11 06:56:13;;;;;;;;;7.00;6.33;;;;;-146.67;44.98;74400.09;6312960;22;61945;-76
2023/08/11 06:58:38;;;;;;;;;2.67;2.00;;;;;-146.67;45.31;74438.03;6308436;22;64745;-76
2023/08/11 07:01:04;;;;;;;;;7.67;6.00;;;;;-146.67;45.89;74465.97;6310053;22;61823;-75
2023/08/11 07:03:30;;;;;;;;;6.67;6.00;;;;;-146.67;46.16;74507.91;6312552;22;61820;-75
2023/08/11 07:05:55;;;;;;;;;5.33;5.00;;;;;-146.67;46.54;74529.84;6312471;22;61820;-75
2023/08/11 07:08:21;;;;;;;;;7.67;6.00;;;;;-146.67;47.04;74533.84;6311679;22;61986;-75
2023/08/11 07:10:47;;;;;;;;;7.00;5.00;;;;;-146.67;46.71;74517.88;6336679;22;61705;-75
2023/08/11 07:13:12;;;;;;;;;8.00;7.00;;;;;-146.67;46.29;74507.91;6311816;22;61671;-75
2023/08/11 07:15:42;;;;;;;;;9.00;7.33;;;;;-146.67;46.21;74521.88;6312417;22;61903;-75
2023/08/11 07:18:07;;;;;;;;;5.67;5.33;;;;;-146.67;47.03;74549.81;6309657;22;63585;-75
2023/08/11 07:20:33;;;;;;;;;6.67;5.67;;;;;-146.67;47.23;74537.84;6311550;22;61584;-75
2023/08/11 07:22:58;;;;;;;;;5.33;5.33;;;;;-146.67;46.74;74517.88;6310465;22;62229;-75
2023/08/11 07:25:23;;;;;;;;;5.67;5.67;;;;;-146.67;46.48;74527.84;6310623;22;61699;-75
2023/08/11 07:27:49;;;;;;;;;7.00;6.00;;;;;-146.67;46.76;74525.88;6308611;22;63690;-75
2023/08/11 07:30:14;;;;;;;;;7.00;6.67;;;;;-146.67;46.58;74519.88;6312522;22;61657;-75
2023/08/11 07:32:41;;;;;;;;;9.00;6.67;;;;;-146.67;46.58;74515.88;6312523;22;61748;-75
2023/08/11 07:35:07;;;;;;;;;7.00;7.00;;;;;-146.67;46.61;74501.91;6310507;22;62043;-75
2023/08/11 07:37:32;;;;;;;;;9.33;9.33;;;;;-146.67;46.63;74519.88;6335646;22;63724;-75
2023/08/11 07:39:58;;;;;;;;;10.67;10.00;;;;;-146.67;46.98;74553.81;6336450;22;61921;-75
2023/08/11 07:42:23;;;;;;;;;6.33;6.00;;;;;-146.67;47.26;74557.81;6311827;22;61702;-75
2023/08/11 07:44:49;;;;;;;;;10.00;7.00;;;;;-146.67;47.10;74541.84;6311473;22;61742;-75
2023/08/11 07:47:14;;;;;;;;;8.00;8.00;;;;;-146.67;46.90;74515.88;6311449;22;63137;-75
2023/08/11 07:49:39;;;;;;;;;8.33;6.67;;;;;-146.67;46.86;74499.91;6335837;22;61961;-75
2023/08/11 07:52:05;;;;;;;;;6.00;6.00;;;;;-146.67;46.72;74487.94;6312139;22;61713;-75
2023/08/11 07:54:30;;;;;;;;;7.33;7.00;;;;;-146.67;46.79;74501.91;6310101;22;62002;-75
2023/08/11 07:56:56;;;;;;;;;8.67;8.33;;;;;-146.67;47.07;74509.88;6308879;22;63373;-76
2023/08/11 07:59:21;;;;;;;;;7.67;6.67;;;;;-146.67;46.99;74507.91;6311805;22;61651;-75
2023/08/11 08:01:46;;;;;;;;;8.33;8.33;;;;;-146.67;46.81;74517.88;6312140;22;61825;-75
2023/08/11 08:04:12;;;;;;;;;8.00;8.00;;;;;-146.67;46.76;74531.84;6312653;22;61604;-75
2023/08/11 08:06:45;;;;;;;;;9.33;7.00;;;;;-146.67;47.37;74543.84;6311379;22;61901;-75
2023/08/11 08:09:11;;;;;;;;;9.33;8.00;;;;;-146.67;47.21;74535.84;6309832;22;61734;-75
2023/08/11 08:11:38;;;;;;;;;10.00;10.00;;;;;-146.67;47.10;74535.84;6309170;22;61821;-75
2023/08/11 08:14:04;;;;;;;;;7.00;7.00;;;;;-146.67;47.31;74545.81;6309583;22;61727;-75
2023/08/11 08:16:30;;;;;;;;;7.67;7.67;;;;;-146.67;47.13;74527.84;6309158;22;63872;-75
2023/08/11 08:18:55;;;;;;;;;10.00;8.67;;;;;-146.67;46.82;74529.84;6311924;22;61679;-75
2023/08/11 08:21:21;;;;;;;;;11.33;7.33;;;;;-146.67;47.15;74533.84;6311500;22;62040;-75
2023/08/11 08:23:47;;;;;;;;;12.33;10.00;;;;;-146.67;46.68;74523.88;6312239;22;61790;-75
2023/08/11 08:26:12;;;;;;;;;8.00;6.50;;;;;-146.67;46.91;74529.84;6308562;22;64856;-75
2023/08/11 08:28:38;;;;;;;;;9.00;8.67;;;;;-146.67;46.76;74533.84;6311293;22;61876;-75
2023/08/11 08:31:05;;;;;;;;;14.00;9.33;;;;;-146.67;46.62;74529.84;6311768;22;61727;-75
2023/08/11 08:33:31;;;;;;;;;10.00;10.00;;;;;-146.67;47.00;74531.84;6311947;22;61648;-75
2023/08/11 08:35:56;;;;;;;;;13.67;10.33;;;;;-146.67;46.64;74523.88;6308778;22;63638;-75
2023/08/11 08:38:22;;;;;;;;;7.33;6.00;;;;;-146.67;46.85;74521.88;6335876;22;61608;-75
2023/08/11 08:40:48;;;;;;;;;14.75;11.25;;;;;-146.67;46.49;74503.91;6311366;22;61655;-75
2023/08/11 08:43:13;;;;;;;;;14.00;10.00;;;;;-146.67;46.70;74495.91;6310593;22;61844;-75
2023/08/11 08:45:43;;;;;;;;;9.00;8.00;;;;;-146.67;46.26;74483.94;6311032;22;62665;-75
2023/08/11 08:48:20;;;;;;;;;7.67;7.33;;;;;-146.67;46.51;74467.97;6311304;22;61678;-75
2023/08/11 08:50:45;;;;;;;;;10.33;8.00;;;;;-146.67;46.27;74456.00;6311742;22;61718;-75
2023/08/11 08:53:11;;;;;;;;;7.00;7.00;;;;;-146.67;46.20;74440.00;6311918;22;62052;-75
2023/08/11 08:55:36;;;;;;;;;8.00;8.00;;;;;-146.67;46.41;74432.03;6308973;22;63932;-75
2023/08/11 08:58:03;;;;;;;;;8.67;8.33;;;;;-146.67;45.88;74422.03;6311353;22;61663;-75
2023/08/11 09:00:30;;;;;;;;;10.00;8.67;;;;;-146.67;45.91;74418.06;6311949;22;61671;-75
2023/08/11 09:02:58;;;;;;;;;10.67;9.67;;;;;-146.67;45.44;74418.06;6311750;22;61757;-75
2023/08/11 09:05:24;;;;;;;;;8.00;8.00;;;;;-146.67;45.35;74406.06;6311268;22;62785;-75
2023/08/11 09:07:49;;;;;;;;;8.00;7.67;;;;;-146.67;45.32;74400.09;6311517;22;61794;-76
2023/08/11 09:10:16;;;;;;;;;7.33;7.33;;;;;-146.67;45.40;74388.09;6311614;22;62013;-75
2023/08/11 09:12:44;;;;;;;;;5.67;3.67;;;;;-146.67;45.27;74380.13;6311926;22;61957;-76
2023/08/11 09:15:11;;;;;;;;;11.67;10.67;;;;;-146.67;44.90;74382.13;6334834;22;63898;-75
2023/08/11 09:17:39;;;;;;;;;10.00;8.33;;;;;-146.67;45.12;74400.09;6311579;22;61826;-75
2023/08/11 09:20:06;;;;;;;;;12.00;11.00;;;;;-146.67;45.16;74396.09;6308625;22;61707;-75
2023/08/11 09:22:32;;;;;;;;;9.67;7.67;;;;;-146.67;45.26;74398.09;6311534;22;61700;-75
2023/08/11 09:24:58;;;;;;;;;8.00;8.00;;;;;-146.67;45.56;74410.06;6310612;22;62436;-76
2023/08/11 09:27:23;;;;;;;;;6.00;6.00;;;;;-146.67;45.28;74414.06;6311508;22;61647;-75
2023/08/11 09:29:49;;;;;;;;;10.00;8.67;;;;;-146.67;45.33;74426.03;6311230;22;61608;-75
2023/08/11 09:32:15;;;;;;;;;10.00;8.33;;;;;-146.67;45.71;74438.03;6311651;22;61724;-75
2023/08/11 09:34:43;;;;;;;;;8.00;8.00;;;;;-146.67;45.50;74420.06;6310839;22;61755;-75
2023/08/11 09:37:09;;;;;;;;;9.67;7.00;;;;;-146.67;45.61;74406.06;6308711;22;61828;-75
2023/08/11 09:39:36;;;;;;;;;8.00;8.00;;;;;-146.67;45.32;74402.09;6311564;22;61706;-75
2023/08/11 09:42:03;;;;;;;;;6.00;6.00;;;;;-146.67;45.17;74396.09;6311899;22;61627;-75
2023/08/11 09:44:29;;;;;;;;;8.67;5.67;;;;;-146.67;45.38;74386.13;6309452;22;61948;-75
2023/08/11 09:46:55;;;;;;;;;6.00;4.33;;;;;-146.67;45.57;74376.13;6311386;22;61666;-75
2023/08/11 09:49:21;;;;;;;;;8.33;6.67;;;;;-146.67;44.64;74378.13;6310623;22;62088;-75
2023/08/11 09:51:50;;;;;;;;;8.33;6.00;;;;;-146.67;44.48;74376.13;6310917;22;61819;-75
2023/08/11 09:54:16;;;;;;;;;6.67;6.67;;;;;-146.67;44.45;74352.19;6308329;22;65074;-75
2023/08/11 09:56:43;;;;;;;;;7.33;6.33;;;;;-146.67;44.27;74314.25;6311226;22;61792;-76
2023/08/11 09:59:18;;;;;;;;;5.00;5.00;;;;;-146.67;43.73;74278.31;6310333;22;61646;-75
2023/08/11 10:01:46;;;;;;;;;6.33;5.33;;;;;-146.67;43.02;74262.34;6311332;22;61726;-75
2023/08/11 10:04:33;;;;;;;;;5.00;4.00;;;;;-146.67;43.20;74240.38;6310268;22;62446;-75
2023/08/11 10:07:01;;;;;;;;;7.67;5.33;;;;;-146.67;43.06;74202.44;6310642;22;62114;-75
2023/08/11 10:09:30;;;;;;;;;3.33;3.33;;;;;-146.67;42.29;74188.47;6309303;22;61779;-75
2023/08/11 10:11:58;;;;;;;;;5.00;5.00;;;;;-146.67;42.17;74136.56;6311432;22;61642;-75
2023/08/11 10:14:27;;;;;;;;;7.00;6.33;;;;;-146.67;41.71;74120.59;6307903;22;63984;-75
2023/08/11 10:16:53;;;;;;;;;6.00;6.00;;;;;-146.67;41.86;74130.59;6311419;22;62091;-75
2023/08/11 10:19:20;;;;;;;;;6.33;6.33;;;;;-146.67;41.84;74152.53;6310688;22;61726;-75
2023/08/11 10:21:45;;;;;;;;;4.67;4.00;;;;;-146.67;42.04;74160.53;6334907;22;62097;-75
2023/08/11 10:24:12;;;;;;;;;9.00;6.00;;;;;-146.67;42.00;74152.53;6309923;22;62823;-75
2023/08/11 10:26:39;;;;;;;;;6.33;6.33;;;;;-146.67;42.01;74152.53;6310676;22;61733;-75
2023/08/11 10:29:04;;;;;;;;;7.00;6.00;;;;;-146.67;42.46;74134.56;6310110;22;61872;-75
2023/08/11 10:31:31;;;;;;;;;8.00;6.33;;;;;-146.67;42.01;74118.59;6335033;22;61697;-75
2023/08/11 10:33:58;;;;;;;;;7.33;6.00;;;;;-146.67;41.56;74116.59;6310336;22;63133;-75
2023/08/11 10:36:26;;;;;;;;;9.00;6.33;;;;;-146.67;41.52;74098.66;6310715;22;61666;-75
2023/08/11 10:39:06;;;;;;;;;4.33;4.33;;;;;-146.67;41.06;74066.69;6312252;22;61877;-75
2023/08/11 10:41:33;;;;;;;;;6.00;4.67;;;;;-146.67;41.20;74050.72;6312114;22;61691;-75
2023/08/11 10:43:58;;;;;;;;;10.00;6.33;;;;;-146.67;41.50;74016.78;6311608;22;61832;-75
2023/08/11 10:46:31;;;;;;;;;9.00;8.00;;;;;-146.67;40.42;73998.84;6312322;22;61596;-75
2023/08/11 10:48:59;;;;;;;;;6.33;5.00;;;;;-146.67;41.34;74056.72;6312327;22;61607;-75
2023/08/11 10:51:33;;;;;;;;;5.67;5.00;;;;;-146.67;41.32;74078.69;6309630;22;61965;-75
2023/08/11 10:54:11;;;;;;;;;5.67;5.67;;;;;-146.67;41.34;74062.72;6309539;22;63704;-75
2023/08/11 10:56:40;;;;;;;;;6.67;5.00;;;;;-146.67;41.33;74040.75;6312526;22;61864;-75
2023/08/11 10:59:23;;;;;;;;;6.67;4.67;;;;;-146.67;41.19;74024.78;6312225;22;61802;-75
2023/08/11 11:01:50;;;;;;;;;5.00;5.00;;;;;-146.67;40.87;74000.81;6312754;22;61635;-75
2023/08/11 11:04:18;;;;;;;;;7.00;5.33;;;;;-146.67;40.35;73964.91;6308852;22;63537;-75
2023/08/11 11:06:45;;;;;;;;;5.33;5.00;;;;;-146.67;39.75;73944.94;6310228;22;61884;-75
2023/08/11 11:09:11;;;;;;;;;7.00;4.67;;;;;-146.67;39.99;73920.97;6310355;22;61840;-75
2023/08/11 11:11:37;;;;;;;;;6.33;6.00;;;;;-146.67;39.80;73909.00;6312118;22;61932;-75